Time;durP1;ratioP1;P1;durP2;ratioP2;P2;SDS_P1;SDS_P2;PMS_P1;PMS_P2;Temp;Humidity;BMP_temperature;BMP_pressure;BME280_temperature;BME280_humidity;BME280_pressure;Samples;Min_cycle;Max_cycle;Signal;HPM_P1;HPM_P2
2022/12/14 00:00:45;;;;;;;;;;;-3.70;99.90;;;;;;4933815;29;19929;-75
2022/12/14 00:03:10;;;;;;;;;;;-3.70;99.90;;;;;;4952309;28;20017;-75
2022/12/14 00:05:36;;;;;;;;;;;-3.70;99.90;;;;;;4958326;29;19922;-75
2022/12/14 00:08:02;;;;;;;;;;;-3.80;99.90;;;;;;4958334;28;19922;-74
2022/12/14 00:10:27;;;;;;;;;;;-3.80;99.90;;;;;;4957422;29;20330;-74
2022/12/14 00:12:53;;;;;;;;;;;-3.80;99.90;;;;;;4956975;29;19929;-75
2022/12/14 00:15:18;;;;;;;;;;;-1.80;99.90;;;;;;4956081;28;19923;-75
2022/12/14 00:17:44;;;;;;;;;;;-3.90;99.90;;;;;;4957706;29;20347;-75
2022/12/14 00:20:09;;;;;;;;;;;-3.90;99.90;;;;;;4958325;29;20029;-74
2022/12/14 00:22:35;;;;;;;;;;;-3.90;99.90;;;;;;4957647;29;20392;-75
2022/12/14 00:25:01;;;;;;;;;;;-4.00;99.90;;;;;;4958387;29;20302;-76
2022/12/14 00:27:27;;;;;;;;;;;-2.70;99.90;;;;;;4956253;29;19922;-73
2022/12/14 00:29:52;;;;;;;;;;;-4.00;99.90;;;;;;4958258;28;20354;-76
2022/12/14 00:32:18;;;;;;;;;;;-4.00;99.90;;;;;;4957831;29;19922;-75
2022/12/14 00:34:43;;;;;;;;;;;-4.10;99.90;;;;;;4957700;29;19926;-75
2022/12/14 00:37:09;;;;;;;;;;;-4.20;99.90;;;;;;4957161;29;19987;-74
2022/12/14 00:39:34;;;;;;;;;;;-4.20;99.90;;;;;;4956351;29;20053;-75
2022/12/14 00:42:00;;;;;;;;;;;-4.20;99.90;;;;;;4956214;28;20350;-74
2022/12/14 00:44:25;;;;;;;;;;;-4.20;99.90;;;;;;4956790;29;19938;-75
2022/12/14 00:46:51;;;;;;;;;;;-4.30;99.90;;;;;;4956832;28;19997;-74
2022/12/14 00:49:16;;;;;;;;;;;-4.30;99.90;;;;;;4955472;29;19929;-74
2022/12/14 00:51:42;;;;;;;;;;;-4.30;99.90;;;;;;4954257;29;19934;-75
2022/12/14 00:54:07;;;;;;;;;;;-3.60;99.90;;;;;;4957082;29;20289;-75
2022/12/14 00:56:33;;;;;;;;;;;-4.40;99.90;;;;;;4949535;29;19933;-75
2022/12/14 00:58:59;;;;;;;;;;;-4.40;99.90;;;;;;4948680;29;19926;-75
2022/12/14 01:01:24;;;;;;;;;;;-4.40;99.90;;;;;;4955769;28;19922;-74
2022/12/14 01:03:50;;;;;;;;;;;-4.40;99.90;;;;;;4956989;28;20016;-74
2022/12/14 01:06:16;;;;;;;;;;;-4.50;99.90;;;;;;4957650;29;20024;-75
2022/12/14 01:08:42;;;;;;;;;;;-4.50;99.90;;;;;;4957535;28;19922;-75
2022/12/14 01:11:08;;;;;;;;;;;-4.50;99.90;;;;;;4955919;29;19946;-74
2022/12/14 01:13:34;;;;;;;;;;;-4.60;99.90;;;;;;4957608;29;20406;-74
2022/12/14 01:16:07;;;;;;;;;;;-4.60;99.90;;;;;;4956476;28;19945;-74
2022/12/14 01:18:34;;;;;;;;;;;-4.60;99.90;;;;;;4955392;29;20294;-74
2022/12/14 01:21:13;;;;;;;;;;;-4.60;99.90;;;;;;4957234;29;20040;-74
2022/12/14 01:23:38;;;;;;;;;;;-4.70;99.90;;;;;;4955330;29;19926;-75
2022/12/14 01:26:04;;;;;;;;;;;-4.70;99.90;;;;;;4955808;29;20058;-75
2022/12/14 01:28:30;;;;;;;;;;;-4.70;99.90;;;;;;4957282;29;19922;-75
2022/12/14 01:30:55;;;;;;;;;;;-4.70;99.90;;;;;;4956628;28;19922;-74
2022/12/14 01:33:21;;;;;;;;;;;-4.70;99.90;;;;;;4956978;29;19926;-74
2022/12/14 01:35:46;;;;;;;;;;;-4.70;99.90;;;;;;4957081;29;19923;-74
2022/12/14 01:38:12;;;;;;;;;;;-4.70;99.90;;;;;;4955642;29;19922;-74
2022/12/14 01:40:37;;;;;;;;;;;-4.70;99.90;;;;;;4956832;28;19926;-74
2022/12/14 01:43:08;;;;;;;;;;;-4.10;99.90;;;;;;4955842;29;20282;-74
2022/12/14 01:45:34;;;;;;;;;;;-4.80;99.90;;;;;;4955702;29;20298;-74
2022/12/14 01:48:01;;;;;;;;;;;-4.90;99.90;;;;;;4956220;29;19986;-74
2022/12/14 01:50:29;;;;;;;;;;;-4.80;99.90;;;;;;4956694;29;19989;-74
2022/12/14 01:52:57;;;;;;;;;;;-4.80;99.90;;;;;;4954690;29;20301;-74
2022/12/14 01:55:49;;;;;;;;;;;-4.80;99.90;;;;;;4955935;28;20550;-74
2022/12/14 01:58:22;;;;;;;;;;;-4.90;99.90;;;;;;4953318;29;19965;-74
2022/12/14 02:00:48;;;;;;;;;;;-4.90;99.90;;;;;;4956353;28;19977;-75
2022/12/14 02:03:16;;;;;;;;;;;-4.90;99.90;;;;;;4955307;29;20009;-74
2022/12/14 02:05:45;;;;;;;;;;;-5.00;99.90;;;;;;4956041;29;20010;-75
2022/12/14 02:08:15;;;;;;;;;;;-5.00;99.90;;;;;;4956370;29;19922;-75
2022/12/14 02:10:40;;;;;;;;;;;-5.10;99.90;;;;;;4955505;29;19923;-74
2022/12/14 02:13:22;;;;;;;;;;;-5.00;99.90;;;;;;4954458;29;20005;-75
2022/12/14 02:15:47;;;;;;;;;;;-5.00;99.90;;;;;;4956536;29;19923;-74
2022/12/14 02:18:15;;;;;;;;;;;-3.40;99.90;;;;;;4956724;29;19969;-74
2022/12/14 02:21:00;;;;;;;;;;;-5.00;99.90;;;;;;4955821;28;19926;-75
2022/12/14 02:23:39;;;;;;;;;;;-5.10;99.90;;;;;;4956039;28;19997;-75
2022/12/14 02:26:23;;;;;;;;;;;-5.10;99.90;;;;;;4956145;28;20293;-75
2022/12/14 02:29:01;;;;;;;;;;;-5.00;99.90;;;;;;4955233;28;19997;-75
2022/12/14 02:31:35;;;;;;;;;;;-5.10;99.90;;;;;;4955770;29;19929;-75
2022/12/14 02:34:11;;;;;;;;;;;-5.10;99.90;;;;;;4954373;29;20009;-75
2022/12/14 02:36:57;;;;;;;;;;;-5.10;99.90;;;;;;4954261;29;20008;-75
2022/12/14 02:39:22;;;;;;;;;;;-5.10;99.90;;;;;;4944882;29;19929;-75
2022/12/14 02:41:48;;;;;;;;;;;-5.10;99.90;;;;;;4954050;29;20304;-75
2022/12/14 02:44:32;;;;;;;;;;;-5.10;99.90;;;;;;4956162;29;19922;-75
2022/12/14 02:47:21;;;;;;;;;;;-5.10;99.90;;;;;;4954233;29;19922;-74
2022/12/14 02:49:58;;;;;;;;;;;-5.10;99.90;;;;;;4955001;28;20433;-74
2022/12/14 02:52:27;;;;;;;;;;;-5.10;99.90;;;;;;4955290;29;20358;-75
2022/12/14 02:55:04;;;;;;;;;;;-5.10;99.90;;;;;;4954501;29;19945;-75
2022/12/14 02:57:33;;;;;;;;;;;-5.20;99.90;;;;;;4954625;29;19922;-74
2022/12/14 03:00:00;;;;;;;;;;;-5.20;99.90;;;;;;4936765;29;19923;-75
2022/12/14 03:02:27;;;;;;;;;;;-3.90;99.90;;;;;;4934116;29;19922;-75
2022/12/14 03:04:52;;;;;;;;;;;-5.20;99.90;;;;;;4936803;29;20017;-75
2022/12/14 03:07:32;;;;;;;;;;;-5.20;99.90;;;;;;4934781;29;20375;-75
2022/12/14 03:10:24;;;;;;;;;;;-5.20;99.90;;;;;;4954222;29;19922;-75
2022/12/14 03:12:54;;;;;;;;;;;-5.20;99.90;;;;;;4951034;29;19927;-75
2022/12/14 03:15:21;;;;;;;;;;;-5.30;99.90;;;;;;4953701;28;19922;-74
2022/12/14 03:17:50;;;;;;;;;;;-5.30;99.90;;;;;;4954625;29;19922;-74
2022/12/14 03:20:19;;;;;;;;;;;-5.30;99.90;;;;;;4954974;28;19933;-74
2022/12/14 03:22:53;;;;;;;;;;;-5.30;99.90;;;;;;4955196;28;20374;-74
2022/12/14 03:25:28;;;;;;;;;;;-5.30;99.90;;;;;;4952818;29;19929;-74
2022/12/14 03:28:16;;;;;;;;;;;-5.30;99.90;;;;;;4954986;28;19930;-74
2022/12/14 03:30:43;;;;;;;;;;;-5.30;99.90;;;;;;4948766;29;20437;-74
2022/12/14 03:33:12;;;;;;;;;;;-5.40;99.90;;;;;;4955068;29;19922;-75
2022/12/14 03:35:44;;;;;;;;;;;-5.40;99.90;;;;;;4953842;28;19957;-75
2022/12/14 03:38:36;;;;;;;;;;;-5.50;99.90;;;;;;4952843;28;19922;-75
2022/12/14 03:41:17;;;;;;;;;;;-5.50;99.90;;;;;;4953655;29;19926;-74
2022/12/14 03:43:49;;;;;;;;;;;-5.60;99.90;;;;;;4953312;29;20025;-74
2022/12/14 03:46:18;;;;;;;;;;;-5.60;99.90;;;;;;4953850;29;19922;-75
2022/12/14 03:48:48;;;;;;;;;;;-5.70;99.90;;;;;;4955054;28;19922;-74
2022/12/14 03:51:24;;;;;;;;;;;-5.60;99.90;;;;;;4953735;29;19929;-74
2022/12/14 03:54:03;;;;;;;;;;;-5.60;99.90;;;;;;4954808;28;20061;-74
2022/12/14 03:56:36;;;;;;;;;;;-5.60;99.90;;;;;;4953617;29;20263;-74
2022/12/14 03:59:11;;;;;;;;;;;-5.70;99.90;;;;;;4952359;29;19929;-74
2022/12/14 04:01:41;;;;;;;;;;;-5.70;99.90;;;;;;4953458;29;19922;-75
2022/12/14 04:04:13;;;;;;;;;;;-5.80;99.90;;;;;;4955071;28;19922;-74
2022/12/14 04:06:50;;;;;;;;;;;-5.70;99.90;;;;;;4954149;28;20282;-74
2022/12/14 04:09:37;;;;;;;;;;;-5.70;99.90;;;;;;4953150;29;20374;-75
2022/12/14 04:20:25;;;;;;;;;;;-5.70;99.90;;;;;;4953747;29;19922;-74
2022/12/14 04:23:02;;;;;;;;;;;-5.80;99.90;;;;;;4952987;29;20286;-74
2022/12/14 04:31:12;;;;;;;;;;;-5.90;99.90;;;;;;4953498;29;19926;-74
2022/12/14 04:33:45;;;;;;;;;;;-5.90;99.90;;;;;;4953322;29;20362;-74
2022/12/14 04:36:12;;;;;;;;;;;-5.90;99.90;;;;;;4953703;29;19922;-74
2022/12/14 04:38:38;;;;;;;;;;;-5.90;99.90;;;;;;4953448;28;19926;-75
2022/12/14 04:41:10;;;;;;;;;;;-6.00;99.90;;;;;;4953768;29;19922;-74
2022/12/14 04:43:39;;;;;;;;;;;-6.00;99.90;;;;;;4952967;28;20375;-73
2022/12/14 04:46:06;;;;;;;;;;;-6.00;99.90;;;;;;4954250;29;20001;-73
2022/12/14 04:48:41;;;;;;;;;;;-6.00;99.90;;;;;;4952287;29;19974;-76
2022/12/14 04:51:12;;;;;;;;;;;-6.00;99.90;;;;;;4954965;28;19922;-73
2022/12/14 04:53:40;;;;;;;;;;;-6.00;99.90;;;;;;4955952;29;19922;-76
2022/12/14 04:56:08;;;;;;;;;;;-6.10;99.90;;;;;;4957274;28;19961;-73
2022/12/14 04:58:34;;;;;;;;;;;-6.00;99.90;;;;;;4955457;28;20363;-72
2022/12/14 05:01:09;;;;;;;;;;;-6.10;99.90;;;;;;4956476;29;19929;-74
2022/12/14 05:03:36;;;;;;;;;;;-6.10;99.90;;;;;;4956426;29;19930;-72
2022/12/14 05:06:34;;;;;;;;;;;-6.10;99.90;;;;;;4956230;29;20358;-73
2022/12/14 05:09:10;;;;;;;;;;;-6.10;99.90;;;;;;4924335;29;20670;-73
2022/12/14 05:11:46;;;;;;;;;;;-6.10;99.90;;;;;;4957296;29;19922;-73
2022/12/14 05:14:16;;;;;;;;;;;-6.20;99.90;;;;;;4957446;29;19938;-74
2022/12/14 05:16:42;;;;;;;;;;;-6.20;99.90;;;;;;4956752;28;19926;-75
2022/12/14 05:19:08;;;;;;;;;;;-6.20;99.90;;;;;;4955963;29;19930;-78
2022/12/14 05:21:46;;;;;;;;;;;-6.20;99.90;;;;;;4955822;29;19926;-74
2022/12/14 05:24:11;;;;;;;;;;;-6.20;99.90;;;;;;4956622;29;19973;-76
2022/12/14 05:26:37;;;;;;;;;;;-6.20;99.90;;;;;;4955918;29;20017;-75
2022/12/14 05:29:03;;;;;;;;;;;-6.10;99.90;;;;;;4956113;29;19926;-74
2022/12/14 05:31:29;;;;;;;;;;;-3.40;99.90;;;;;;4956162;28;19922;-73
2022/12/14 05:33:54;;;;;;;;;;;-6.10;99.90;;;;;;4955791;28;19934;-73
2022/12/14 05:36:20;;;;;;;;;;;-6.20;99.90;;;;;;4955487;28;20338;-77
2022/12/14 05:38:46;;;;;;;;;;;-6.10;99.90;;;;;;4954160;29;19922;-79
2022/12/14 05:41:11;;;;;;;;;;;-6.20;99.90;;;;;;4954322;29;19933;-75
2022/12/14 05:43:37;;;;;;;;;;;-6.20;99.90;;;;;;4954578;29;19922;-75
2022/12/14 05:46:06;;;;;;;;;;;-6.30;99.90;;;;;;4953744;29;20338;-75
2022/12/14 05:48:32;;;;;;;;;;;-6.20;99.90;;;;;;4954171;29;19926;-76
2022/12/14 05:51:08;;;;;;;;;;;-6.30;99.90;;;;;;4952789;29;19969;-76
2022/12/14 05:53:37;;;;;;;;;;;-6.70;99.90;;;;;;4955599;28;20434;-75
2022/12/14 05:56:04;;;;;;;;;;;-6.30;99.90;;;;;;4954184;29;19923;-76
2022/12/14 05:58:30;;;;;;;;;;;-6.30;99.90;;;;;;4954511;29;19968;-78
2022/12/14 06:01:00;;;;;;;;;;;-6.30;99.90;;;;;;4955296;28;19926;-77
2022/12/14 06:03:25;;;;;;;;;;;-6.40;99.90;;;;;;4955173;29;19931;-77
2022/12/14 06:05:51;;;;;;;;;;;-6.40;99.90;;;;;;4954580;29;20017;-77
2022/12/14 06:08:16;;;;;;;;;;;-6.40;99.90;;;;;;4955229;29;19929;-74
2022/12/14 06:10:42;;;;;;;;;;;-6.30;99.90;;;;;;4956060;29;19926;-75
2022/12/14 06:13:08;;;;;;;;;;;-6.30;99.90;;;;;;4953602;29;19923;-76
2022/12/14 06:15:33;;;;;;;;;;;-6.30;99.90;;;;;;4954360;29;19934;-77
2022/12/14 06:17:59;;;;;;;;;;;-6.30;99.90;;;;;;4954574;29;20263;-76
2022/12/14 06:20:24;;;;;;;;;;;-6.30;99.90;;;;;;4954842;29;19922;-79
2022/12/14 06:22:50;;;;;;;;;;;-6.30;99.90;;;;;;4955464;29;19929;-77
2022/12/14 06:25:15;;;;;;;;;;;-6.30;99.90;;;;;;4954616;29;19922;-75
2022/12/14 06:27:41;;;;;;;;;;;-6.30;99.90;;;;;;4955320;29;19926;-76
2022/12/14 06:30:07;;;;;;;;;;;-4.70;99.90;;;;;;4954752;29;20283;-75
2022/12/14 06:32:32;;;;;;;;;;;-6.30;99.90;;;;;;4956335;29;20275;-77
2022/12/14 06:34:58;;;;;;;;;;;-6.30;99.90;;;;;;4955568;29;19922;-75
2022/12/14 06:37:29;;;;;;;;;;;-6.30;99.90;;;;;;4954680;29;19922;-75
2022/12/14 06:39:58;;;;;;;;;;;-6.30;99.90;;;;;;4955400;29;20013;-75
2022/12/14 06:42:23;;;;;;;;;;;-6.40;99.90;;;;;;4954911;28;20333;-75
2022/12/14 06:44:49;;;;;;;;;;;-6.30;99.90;;;;;;4956015;29;19923;-76
2022/12/14 06:47:15;;;;;;;;;;;-6.30;99.90;;;;;;4953969;29;19926;-75
2022/12/14 06:49:40;;;;;;;;;;;-6.30;99.90;;;;;;4956152;29;19950;-76
2022/12/14 06:52:06;;;;;;;;;;;-6.30;99.90;;;;;;4954520;29;19922;-76
2022/12/14 06:54:31;;;;;;;;;;;-6.30;99.90;;;;;;4953692;29;19973;-76
2022/12/14 06:56:57;;;;;;;;;;;-6.30;99.90;;;;;;4955577;29;19923;-74
2022/12/14 06:59:22;;;;;;;;;;;-6.30;99.90;;;;;;4953638;29;20310;-74
2022/12/14 07:01:48;;;;;;;;;;;-6.30;99.90;;;;;;4953847;29;19922;-75
2022/12/14 07:04:15;;;;;;;;;;;-6.40;99.90;;;;;;4954425;29;19922;-76
2022/12/14 07:06:40;;;;;;;;;;;-6.40;99.90;;;;;;4954157;29;19922;-75
2022/12/14 07:09:07;;;;;;;;;;;-6.50;99.90;;;;;;4954993;29;19977;-75
2022/12/14 07:11:34;;;;;;;;;;;-6.50;99.90;;;;;;4955726;29;19923;-77
2022/12/14 07:14:01;;;;;;;;;;;-6.60;99.90;;;;;;4955097;28;19922;-80
2022/12/14 07:16:30;;;;;;;;;;;-6.50;99.90;;;;;;4952594;29;19922;-77
2022/12/14 07:18:56;;;;;;;;;;;-6.50;99.90;;;;;;4955508;29;19926;-77
2022/12/14 07:21:22;;;;;;;;;;;-6.50;99.90;;;;;;4954286;29;20022;-78
2022/12/14 07:23:48;;;;;;;;;;;-6.50;99.90;;;;;;4954999;29;20267;-80
2022/12/14 07:26:26;;;;;;;;;;;-6.60;99.90;;;;;;4953002;29;19977;-80
2022/12/14 07:28:52;;;;;;;;;;;-6.50;99.90;;;;;;4953594;29;19974;-80
2022/12/14 07:31:22;;;;;;;;;;;-6.60;99.90;;;;;;4954481;29;19922;-78
2022/12/14 07:33:48;;;;;;;;;;;-6.60;99.90;;;;;;4955307;29;20411;-76
2022/12/14 07:36:15;;;;;;;;;;;-6.70;99.90;;;;;;4950866;29;20139;-80
2022/12/14 07:38:41;;;;;;;;;;;-6.60;99.90;;;;;;4948716;28;19993;-76
2022/12/14 07:41:14;;;;;;;;;;;-6.60;99.90;;;;;;4955147;28;20374;-75
2022/12/14 07:43:40;;;;;;;;;;;-6.50;99.90;;;;;;4954155;28;20227;-75
2022/12/14 07:46:08;;;;;;;;;;;-6.50;99.90;;;;;;4953029;28;19922;-76
2022/12/14 07:48:33;;;;;;;;;;;-6.40;99.90;;;;;;4952274;29;20213;-75
2022/12/14 07:51:02;;;;;;;;;;;-6.40;99.90;;;;;;4950952;29;19922;-76
2022/12/14 07:53:28;;;;;;;;;;;-6.40;99.90;;;;;;4952393;29;19923;-75
2022/12/14 07:55:53;;;;;;;;;;;-6.30;99.90;;;;;;4954658;29;19929;-75
2022/12/14 07:58:19;;;;;;;;;;;-6.40;99.90;;;;;;4954030;29;19922;-74
2022/12/14 08:00:44;;;;;;;;;;;-6.40;99.90;;;;;;4953724;29;19922;-75
2022/12/14 08:03:10;;;;;;;;;;;-6.40;99.90;;;;;;4955025;29;19929;-74
2022/12/14 08:05:37;;;;;;;;;;;-6.40;99.90;;;;;;4951901;29;19922;-76
2022/12/14 08:08:03;;;;;;;;;;;-6.40;99.90;;;;;;4953846;28;20382;-75
2022/12/14 08:10:28;;;;;;;;;;;-6.20;99.90;;;;;;4953453;28;19923;-75
2022/12/14 08:12:54;;;;;;;;;;;-6.20;99.90;;;;;;4953390;28;19924;-75
2022/12/14 08:15:19;;;;;;;;;;;-6.20;99.90;;;;;;4954045;28;20390;-75
2022/12/14 08:17:45;;;;;;;;;;;-6.10;99.90;;;;;;4953645;29;19929;-76
2022/12/14 08:20:11;;;;;;;;;;;-6.10;99.90;;;;;;4954180;29;20017;-76
2022/12/14 08:22:36;;;;;;;;;;;-6.00;99.90;;;;;;4953237;29;19922;-75
2022/12/14 08:25:02;;;;;;;;;;;-6.00;99.90;;;;;;4954070;28;19987;-76
2022/12/14 08:27:29;;;;;;;;;;;-6.00;99.90;;;;;;4957148;29;19923;-74
2022/12/14 08:29:54;;;;;;;;;;;-5.90;99.90;;;;;;4958657;28;19930;-75
2022/12/14 08:32:20;;;;;;;;;;;-5.90;99.90;;;;;;4957143;29;20286;-74
2022/12/14 08:34:45;;;;;;;;;;;-5.70;99.90;;;;;;4956478;28;20386;-74
2022/12/14 08:37:11;;;;;;;;;;;-5.60;99.90;;;;;;4956929;29;19926;-73
2022/12/14 08:39:36;;;;;;;;;;;-5.50;99.90;;;;;;4957463;29;19977;-74
2022/12/14 08:42:02;;;;;;;;;;;-5.30;99.90;;;;;;4957357;29;19934;-73
2022/12/14 08:44:27;;;;;;;;;;;-5.10;99.90;;;;;;4957016;28;20401;-75
2022/12/14 08:46:56;;;;;;;;;;;-3.40;99.90;;;;;;4955600;29;19922;-75
2022/12/14 08:49:21;;;;;;;;;;;-3.20;99.90;;;;;;4956886;29;20532;-76
2022/12/14 08:51:47;;;;;;;;;;;-1.60;99.90;;;;;;4955573;29;20527;-76
2022/12/14 08:54:12;;;;;;;;;;;-0.10;99.90;;;;;;4954940;29;19922;-75
2022/12/14 08:56:42;;;;;;;;;;;1.10;99.90;;;;;;4956773;29;19922;-75
2022/12/14 08:59:08;;;;;;;;;;;2.60;99.90;;;;;;4956416;29;20349;-75
2022/12/14 09:01:33;;;;;;;;;;;3.60;99.90;;;;;;4956505;29;19953;-77
2022/12/14 09:04:09;;;;;;;;;;;4.60;99.90;;;;;;4957725;29;20381;-74
2022/12/14 09:06:35;;;;;;;;;;;5.30;99.90;;;;;;4955259;29;19927;-74
2022/12/14 09:09:02;;;;;;;;;;;6.10;99.90;;;;;;4955968;29;19990;-74
2022/12/14 09:11:28;;;;;;;;;;;7.20;99.90;;;;;;4957013;28;20301;-75
2022/12/14 09:13:55;;;;;;;;;;;7.20;97.10;;;;;;4956086;29;19929;-74
2022/12/14 09:16:21;;;;;;;;;;;7.20;97.20;;;;;;4953029;29;20445;-75
2022/12/14 09:18:47;;;;;;;;;;;7.50;95.70;;;;;;4957168;28;19945;-74
2022/12/14 09:21:13;;;;;;;;;;;7.90;97.40;;;;;;4940967;28;19927;-74
2022/12/14 09:23:39;;;;;;;;;;;8.40;93.10;;;;;;4937916;29;19918;-75
2022/12/14 09:26:20;;;;;;;;;;;8.40;92.80;;;;;;4955339;29;19926;-75
2022/12/14 09:28:47;;;;;;;;;;;8.80;94.90;;;;;;4956921;28;19962;-74
2022/12/14 09:31:14;;;;;;;;;;;9.50;91.50;;;;;;4956275;29;19969;-75
2022/12/14 09:33:40;;;;;;;;;;;11.10;93.60;;;;;;4957031;28;19978;-74
2022/12/14 09:36:07;;;;;;;;;;;11.10;90.00;;;;;;4954908;28;19922;-74
2022/12/14 09:38:34;;;;;;;;;;;10.70;89.10;;;;;;4956296;28;19927;-75
2022/12/14 09:41:04;;;;;;;;;;;10.40;89.60;;;;;;4955816;29;19922;-75
2022/12/14 09:43:44;;;;;;;;;;;11.20;90.30;;;;;;4955590;28;19923;-75
2022/12/14 09:46:18;;;;;;;;;;;11.60;88.20;;;;;;4954882;28;19922;-74
2022/12/14 09:48:44;;;;;;;;;;;11.90;83.50;;;;;;4955124;29;20413;-75
2022/12/14 09:51:13;;;;;;;;;;;12.60;79.90;;;;;;4955744;29;19922;-75
2022/12/14 09:53:40;;;;;;;;;;;13.00;83.20;;;;;;4956453;29;20011;-76
2022/12/14 09:56:07;;;;;;;;;;;12.30;82.00;;;;;;4955005;29;19922;-75
2022/12/14 09:58:34;;;;;;;;;;;11.40;84.50;;;;;;4953991;29;20282;-76
2022/12/14 10:01:21;;;;;;;;;;;11.20;82.50;;;;;;4956675;28;19929;-75
2022/12/14 10:04:10;;;;;;;;;;;11.70;84.10;;;;;;4956504;28;19922;-74
2022/12/14 10:06:50;;;;;;;;;;;12.60;83.30;;;;;;4955414;28;19969;-76
2022/12/14 10:09:28;;;;;;;;;;;12.90;78.80;;;;;;4955602;29;20013;-75
2022/12/14 10:12:12;;;;;;;;;;;13.00;78.30;;;;;;4954213;29;19923;-76
2022/12/14 10:14:43;;;;;;;;;;;12.80;79.90;;;;;;4954313;29;19978;-76
2022/12/14 10:17:15;;;;;;;;;;;13.00;76.00;;;;;;4954137;28;19977;-78
2022/12/14 10:19:44;;;;;;;;;;;14.00;77.30;;;;;;4954090;29;20409;-76
2022/12/14 10:22:12;;;;;;;;;;;13.40;78.20;;;;;;4955123;29;19949;-76
2022/12/14 10:24:46;;;;;;;;;;;13.20;80.20;;;;;;4955507;29;19922;-78
2022/12/14 10:27:19;;;;;;;;;;;13.30;79.70;;;;;;4952876;29;19922;-78
2022/12/14 10:29:48;;;;;;;;;;;14.20;76.80;;;;;;4955686;28;19926;-78
2022/12/14 10:32:14;;;;;;;;;;;15.00;77.20;;;;;;4953592;29;19922;-77
2022/12/14 10:34:40;;;;;;;;;;;14.80;75.40;;;;;;4954624;29;19948;-78
2022/12/14 10:37:09;;;;;;;;;;;14.00;76.70;;;;;;4954882;28;20275;-77
2022/12/14 10:39:42;;;;;;;;;;;13.80;74.30;;;;;;4953889;28;19965;-77
2022/12/14 10:42:15;;;;;;;;;;;13.40;73.40;;;;;;4955439;28;19930;-78
2022/12/14 10:44:44;;;;;;;;;;;13.70;76.30;;;;;;4954352;29;19923;-78
2022/12/14 10:47:39;;;;;;;;;;;13.70;75.00;;;;;;4952755;28;19923;-80
2022/12/14 10:50:07;;;;;;;;;;;13.90;73.80;;;;;;4946075;28;19949;-75
2022/12/14 10:52:35;;;;;;;;;;;13.90;75.10;;;;;;4953956;29;19922;-75
2022/12/14 10:55:03;;;;;;;;;;;14.00;74.80;;;;;;4952928;29;20293;-78
2022/12/14 10:57:29;;;;;;;;;;;13.90;72.90;;;;;;4954305;28;19923;-77
2022/12/14 10:59:55;;;;;;;;;;;14.00;74.40;;;;;;4954932;28;19922;-78
2022/12/14 11:02:26;;;;;;;;;;;14.00;73.80;;;;;;4954152;29;20308;-77
2022/12/14 11:04:53;;;;;;;;;;;14.10;73.20;;;;;;4955346;29;19933;-76
2022/12/14 11:07:20;;;;;;;;;;;14.00;73.10;;;;;;4954771;28;20334;-77
2022/12/14 11:09:45;;;;;;;;;;;14.20;72.90;;;;;;4955643;28;20382;-77
2022/12/14 11:12:26;;;;;;;;;;;14.20;71.30;;;;;;4955429;28;19929;-76
2022/12/14 11:14:59;;;;;;;;;;;14.20;71.20;;;;;;4954172;28;19926;-77
2022/12/14 11:17:28;;;;;;;;;;;14.50;69.50;;;;;;4955120;28;20014;-77
2022/12/14 11:20:17;;;;;;;;;;;14.70;70.10;;;;;;4954989;28;19927;-81
2022/12/14 11:23:02;;;;;;;;;;;15.50;68.70;;;;;;4945310;29;19926;-80
2022/12/14 11:25:36;;;;;;;;;;;15.30;68.90;;;;;;4934646;29;19926;-78
2022/12/14 11:28:04;;;;;;;;;;;15.50;67.90;;;;;;4953851;29;19973;-77
2022/12/14 11:30:30;;;;;;;;;;;16.60;67.30;;;;;;4951979;29;20013;-76
2022/12/14 11:32:56;;;;;;;;;;;16.10;66.50;;;;;;4954705;29;20013;-75
2022/12/14 11:35:21;;;;;;;;;;;16.10;71.30;;;;;;4954057;29;19926;-78
2022/12/14 11:37:47;;;;;;;;;;;16.50;67.80;;;;;;4953700;29;20286;-79
2022/12/14 11:40:21;;;;;;;;;;;16.30;67.70;;;;;;4954658;29;19986;-78
2022/12/14 11:42:48;;;;;;;;;;;15.60;68.40;;;;;;4952619;28;20460;-78
2022/12/14 11:45:23;;;;;;;;;;;14.80;68.90;;;;;;4953745;29;19926;-79
2022/12/14 11:48:08;;;;;;;;;;;14.80;69.00;;;;;;4954678;29;19922;-78
2022/12/14 11:50:34;;;;;;;;;;;14.80;66.60;;;;;;4953330;29;19977;-77
2022/12/14 11:53:05;;;;;;;;;;;14.80;71.10;;;;;;4952177;29;19966;-75
2022/12/14 11:55:32;;;;;;;;;;;15.10;67.70;;;;;;4953257;29;19925;-76
2022/12/14 11:57:58;;;;;;;;;;;15.50;66.70;;;;;;4952311;29;20001;-75
2022/12/14 12:00:29;;;;;;;;;;;15.30;68.30;;;;;;4953839;29;20013;-77
2022/12/14 12:03:05;;;;;;;;;;;15.20;68.70;;;;;;4954267;29;19970;-76
2022/12/14 12:05:32;;;;;;;;;;;15.30;69.00;;;;;;4953100;28;19926;-78
2022/12/14 12:07:58;;;;;;;;;;;16.10;68.10;;;;;;4953528;28;19923;-76
2022/12/14 12:10:36;;;;;;;;;;;15.10;67.50;;;;;;4954372;29;20386;-75
2022/12/14 12:13:04;;;;;;;;;;;14.40;68.50;;;;;;4953203;29;20026;-76
2022/12/14 12:15:32;;;;;;;;;;;14.80;69.70;;;;;;4951580;28;19922;-79
2022/12/14 12:18:03;;;;;;;;;;;15.50;66.30;;;;;;4953374;29;19922;-78
2022/12/14 12:20:33;;;;;;;;;;;15.50;69.60;;;;;;4952609;29;20318;-77
2022/12/14 12:23:05;;;;;;;;;;;15.70;69.40;;;;;;4953848;28;19922;-76
2022/12/14 12:25:33;;;;;;;;;;;16.40;65.60;;;;;;4953044;28;19918;-75
2022/12/14 12:28:02;;;;;;;;;;;15.80;68.60;;;;;;4952636;29;19926;-78
2022/12/14 12:30:30;;;;;;;;;;;16.20;67.80;;;;;;4952544;29;19919;-78
2022/12/14 12:33:02;;;;;;;;;;;16.40;66.10;;;;;;4953252;28;19929;-75
2022/12/14 12:35:30;;;;;;;;;;;16.10;66.70;;;;;;4953615;29;19922;-76
2022/12/14 12:37:59;;;;;;;;;;;15.60;65.50;;;;;;4953617;29;19918;-76
2022/12/14 12:40:24;;;;;;;;;;;15.00;67.80;;;;;;4952806;28;19922;-75
2022/12/14 12:42:58;;;;;;;;;;;14.80;68.30;;;;;;4954032;29;19923;-76
2022/12/14 12:45:33;;;;;;;;;;;14.10;68.20;;;;;;4953040;28;19929;-76
2022/12/14 12:48:02;;;;;;;;;;;14.00;70.00;;;;;;4952866;28;20357;-77
2022/12/14 12:50:32;;;;;;;;;;;14.00;68.90;;;;;;4952112;29;19922;-76
2022/12/14 12:53:00;;;;;;;;;;;14.20;69.40;;;;;;4953298;28;20408;-75
2022/12/14 12:55:26;;;;;;;;;;;14.40;70.20;;;;;;4952181;29;20400;-76
2022/12/14 12:57:53;;;;;;;;;;;14.30;70.60;;;;;;4953345;29;20518;-79
2022/12/14 13:00:20;;;;;;;;;;;13.80;69.30;;;;;;4951347;29;19923;-76
2022/12/14 13:02:58;;;;;;;;;;;13.60;71.60;;;;;;4953880;29;19985;-75
2022/12/14 13:05:25;;;;;;;;;;;12.90;72.10;;;;;;4952955;29;19919;-77
2022/12/14 13:07:55;;;;;;;;;;;12.10;74.50;;;;;;4952449;28;20057;-75
2022/12/14 13:10:22;;;;;;;;;;;12.50;72.40;;;;;;4953557;28;19918;-75
2022/12/14 13:12:50;;;;;;;;;;;12.80;72.80;;;;;;4956394;29;20458;-75
2022/12/14 13:15:19;;;;;;;;;;;11.70;75.30;;;;;;4955681;29;20404;-76
2022/12/14 13:17:46;;;;;;;;;;;12.00;74.90;;;;;;4956843;29;19926;-74
2022/12/14 13:20:20;;;;;;;;;;;10.80;76.30;;;;;;4955890;29;20005;-74
2022/12/14 13:22:46;;;;;;;;;;;10.10;78.10;;;;;;4956008;28;20352;-74
2022/12/14 13:25:15;;;;;;;;;;;10.30;77.50;;;;;;4957056;28;19926;-78
2022/12/14 13:27:49;;;;;;;;;;;9.70;78.80;;;;;;4956715;28;19961;-78
2022/12/14 13:30:14;;;;;;;;;;;9.70;83.20;;;;;;4955832;28;19923;-76
2022/12/14 13:32:42;;;;;;;;;;;7.50;85.40;;;;;;4956818;29;19985;-75
2022/12/14 13:35:32;;;;;;;;;;;7.40;83.50;;;;;;4955173;29;19929;-74
2022/12/14 13:38:16;;;;;;;;;;;6.60;86.10;;;;;;4952755;29;20291;-75
2022/12/14 13:40:52;;;;;;;;;;;6.40;84.90;;;;;;4952867;29;19922;-76
2022/12/14 13:43:29;;;;;;;;;;;5.80;88.80;;;;;;4954027;29;19922;-75
2022/12/14 13:45:55;;;;;;;;;;;5.10;90.20;;;;;;4956230;29;20378;-75
2022/12/14 13:48:23;;;;;;;;;;;6.30;93.10;;;;;;4956376;29;19922;-77
2022/12/14 13:50:53;;;;;;;;;;;4.50;92.30;;;;;;4955549;28;19930;-77
2022/12/14 13:53:25;;;;;;;;;;;3.60;93.90;;;;;;4955675;29;20366;-75
2022/12/14 13:55:52;;;;;;;;;;;3.40;94.50;;;;;;4955472;29;20283;-75
2022/12/14 13:58:19;;;;;;;;;;;3.80;95.00;;;;;;4955203;29;19977;-75
2022/12/14 14:00:44;;;;;;;;;;;3.10;95.50;;;;;;4954881;29;19923;-75
2022/12/14 14:03:28;;;;;;;;;;;2.80;96.10;;;;;;4955397;29;19940;-74
2022/12/14 14:06:01;;;;;;;;;;;2.70;97.90;;;;;;4954913;29;19926;-75
2022/12/14 14:08:33;;;;;;;;;;;2.60;98.00;;;;;;4955218;28;19968;-74
2022/12/14 14:11:16;;;;;;;;;;;2.30;98.90;;;;;;4955478;28;20017;-74
2022/12/14 14:13:45;;;;;;;;;;;2.10;99.90;;;;;;4938471;29;19981;-75
2022/12/14 14:16:22;;;;;;;;;;;1.90;99.90;;;;;;4956010;29;19926;-74
2022/12/14 14:19:01;;;;;;;;;;;2.20;99.90;;;;;;4953939;29;19958;-74
2022/12/14 14:21:40;;;;;;;;;;;1.50;99.90;;;;;;4954511;29;19923;-75
2022/12/14 14:24:15;;;;;;;;;;;1.40;99.90;;;;;;4954631;28;20011;-76
2022/12/14 14:26:42;;;;;;;;;;;1.30;99.90;;;;;;4956184;29;19926;-75
2022/12/14 14:29:19;;;;;;;;;;;1.20;99.90;;;;;;4955515;29;19922;-75
2022/12/14 14:31:50;;;;;;;;;;;1.00;99.90;;;;;;4953356;29;19922;-76
2022/12/14 14:34:17;;;;;;;;;;;0.90;99.90;;;;;;4954221;28;19927;-79
2022/12/14 14:36:43;;;;;;;;;;;2.30;99.90;;;;;;4955456;28;19926;-77
2022/12/14 14:39:42;;;;;;;;;;;0.70;99.90;;;;;;4958690;28;19922;-78
2022/12/14 14:42:16;;;;;;;;;;;0.60;99.90;;;;;;4943611;29;19929;-79
2022/12/14 14:44:47;;;;;;;;;;;1.30;99.90;;;;;;4954350;29;19918;-77
2022/12/14 14:47:14;;;;;;;;;;;1.50;99.90;;;;;;4954003;29;19933;-78